sensor_id;sensor_type;location;lat;lon;timestamp;pressure;altitude;pressure_sealevel;temperature;humidity
78373;BME280;67656;52.074;4.758;2024-01-15T00:04:28;100470.91;;;1.24;100.00
78373;BME280;67656;52.074;4.758;2024-01-15T00:09:29;100468.19;;;1.01;100.00
78373;BME280;67656;52.074;4.758;2024-01-15T00:14:29;100455.09;;;0.82;100.00
78373;BME280;67656;52.074;4.758;2024-01-15T00:19:29;100456.00;;;0.87;100.00
78373;BME280;67656;52.074;4.758;2024-01-15T00:24:30;100453.44;;;0.97;100.00
78373;BME280;67656;52.074;4.758;2024-01-15T00:29:30;100447.50;;;1.19;100.00
78373;BME280;67656;52.074;4.758;2024-01-15T00:34:31;100437.13;;;1.24;100.00
78373;BME280;67656;52.074;4.758;2024-01-15T00:39:32;100426.72;;;1.26;100.00
78373;BME280;67656;52.074;4.758;2024-01-15T00:44:32;100419.75;;;1.17;100.00
78373;BME280;67656;52.074;4.758;2024-01-15T00:49:33;100422.31;;;1.04;100.00
78373;BME280;67656;52.074;4.758;2024-01-15T00:54:33;100422.28;;;0.98;100.00
78373;BME280;67656;52.074;4.758;2024-01-15T00:59:34;100409.16;;;0.70;100.00
78373;BME280;67656;52.074;4.758;2024-01-15T01:04:34;100409.13;;;0.66;100.00
78373;BME280;67656;52.074;4.758;2024-01-15T01:09:34;100416.00;;;0.60;100.00
78373;BME280;67656;52.074;4.758;2024-01-15T01:14:35;100422.13;;;0.66;100.00
78373;BME280;67656;52.074;4.758;2024-01-15T01:19:35;100419.47;;;0.59;100.00
78373;BME280;67656;52.074;4.758;2024-01-15T01:24:36;100415.19;;;0.65;100.00
78373;BME280;67656;52.074;4.758;2024-01-15T01:29:36;100426.63;;;1.01;100.00
78373;BME280;67656;52.074;4.758;2024-01-15T01:34:40;100408.53;;;1.40;100.00
78373;BME280;67656;52.074;4.758;2024-01-15T01:39:41;100411.19;;;1.53;100.00
78373;BME280;67656;52.074;4.758;2024-01-15T01:44:42;100399.91;;;1.45;100.00
78373;BME280;67656;52.074;4.758;2024-01-15T01:49:43;100407.66;;;1.33;100.00
78373;BME280;67656;52.074;4.758;2024-01-15T01:54:44;100399.81;;;1.11;100.00
78373;BME280;67656;52.074;4.758;2024-01-15T01:59:45;100404.09;;;0.94;100.00
78373;BME280;67656;52.074;4.758;2024-01-15T02:04:47;100403.19;;;0.87;100.00
78373;BME280;67656;52.074;4.758;2024-01-15T02:09:47;100402.28;;;0.80;100.00
78373;BME280;67656;52.074;4.758;2024-01-15T02:14:48;100404.78;;;0.61;100.00
78373;BME280;67656;52.074;4.758;2024-01-15T02:19:49;100409.97;;;0.61;100.00
78373;BME280;67656;52.074;4.758;2024-01-15T02:24:50;100411.59;;;0.44;100.00
78373;BME280;67656;52.074;4.758;2024-01-15T02:29:50;100420.22;;;0.40;100.00
78373;BME280;67656;52.074;4.758;2024-01-15T02:34:51;100403.84;;;0.50;100.00
78373;BME280;67656;52.074;4.758;2024-01-15T02:39:51;100408.19;;;0.50;100.00
78373;BME280;67656;52.074;4.758;2024-01-15T02:44:51;100394.28;;;0.43;100.00
78373;BME280;67656;52.074;4.758;2024-01-15T02:49:52;100391.66;;;0.40;100.00
78373;BME280;67656;52.074;4.758;2024-01-15T02:54:52;100393.38;;;0.38;100.00
78373;BME280;67656;52.074;4.758;2024-01-15T02:59:53;100409.81;;;0.37;100.00
78373;BME280;67656;52.074;4.758;2024-01-15T03:04:53;100393.56;;;0.69;100.00
78373;BME280;67656;52.074;4.758;2024-01-15T03:09:53;100384.84;;;0.60;100.00
78373;BME280;67656;52.074;4.758;2024-01-15T03:14:54;100383.97;;;0.55;100.00
78373;BME280;67656;52.074;4.758;2024-01-15T03:19:54;100378.75;;;0.48;100.00
78373;BME280;67656;52.074;4.758;2024-01-15T03:24:54;100383.97;;;0.55;100.00
78373;BME280;67656;52.074;4.758;2024-01-15T03:29:55;100381.38;;;0.55;100.00
78373;BME280;67656;52.074;4.758;2024-01-15T03:34:55;100388.34;;;0.67;100.00
78373;BME280;67656;52.074;4.758;2024-01-15T03:39:55;100405.78;;;0.88;100.00
78373;BME280;67656;52.074;4.758;2024-01-15T03:44:56;100402.38;;;1.08;100.00
78373;BME280;67656;52.074;4.758;2024-01-15T03:49:56;100385.00;;;0.95;100.00
78373;BME280;67656;52.074;4.758;2024-01-15T03:54:57;100391.88;;;0.77;100.00
78373;BME280;67656;52.074;4.758;2024-01-15T03:59:57;100388.38;;;0.70;100.00
78373;BME280;67656;52.074;4.758;2024-01-15T04:04:57;100401.44;;;0.83;100.00
78373;BME280;67656;52.074;4.758;2024-01-15T04:09:58;100393.66;;;0.86;100.00
78373;BME280;67656;52.074;4.758;2024-01-15T04:14:58;100376.28;;;0.74;100.00
78373;BME280;67656;52.074;4.758;2024-01-15T04:19:59;100372.72;;;0.59;100.00
78373;BME280;67656;52.074;4.758;2024-01-15T04:24:59;100374.44;;;0.51;100.00
78373;BME280;67656;52.074;4.758;2024-01-15T04:30:00;100364.00;;;0.48;100.00
78373;BME280;67656;52.074;4.758;2024-01-15T04:35:00;100361.44;;;0.50;100.00
78373;BME280;67656;52.074;4.758;2024-01-15T04:40:02;100371.84;;;0.57;100.00
78373;BME280;67656;52.074;4.758;2024-01-15T04:45:03;100374.50;;;0.64;100.00
78373;BME280;67656;52.074;4.758;2024-01-15T04:50:04;100371.03;;;0.65;100.00
78373;BME280;67656;52.074;4.758;2024-01-15T04:55:05;100369.34;;;0.76;100.00
78373;BME280;67656;52.074;4.758;2024-01-15T05:00:06;100359.78;;;0.66;100.00
78373;BME280;67656;52.074;4.758;2024-01-15T05:05:06;100358.00;;;0.57;100.00
78373;BME280;67656;52.074;4.758;2024-01-15T05:10:07;100345.84;;;0.48;100.00
78373;BME280;67656;52.074;4.758;2024-01-15T05:15:07;100337.06;;;0.26;100.00
78373;BME280;67656;52.074;4.758;2024-01-15T05:20:08;100343.97;;;0.25;100.00
78373;BME280;67656;52.074;4.758;2024-01-15T05:25:09;100346.56;;;0.22;100.00
78373;BME280;67656;52.074;4.758;2024-01-15T05:30:09;100335.38;;;0.33;100.00
78373;BME280;67656;52.074;4.758;2024-01-15T05:35:10;100350.19;;;0.52;100.00
78373;BME280;67656;52.074;4.758;2024-01-15T05:40:11;100331.16;;;0.50;100.00
78373;BME280;67656;52.074;4.758;2024-01-15T05:45:12;100332.84;;;0.45;100.00
78373;BME280;67656;52.074;4.758;2024-01-15T05:50:12;100317.22;;;0.36;100.00
78373;BME280;67656;52.074;4.758;2024-01-15T05:55:13;100333.66;;;0.39;100.00
78373;BME280;67656;52.074;4.758;2024-01-15T06:00:13;100327.59;;;0.36;100.00
78373;BME280;67656;52.074;4.758;2024-01-15T06:05:14;100314.59;;;0.31;100.00
78373;BME280;67656;52.074;4.758;2024-01-15T06:10:14;100317.16;;;0.23;100.00
78373;BME280;67656;52.074;4.758;2024-01-15T06:15:15;100328.34;;;0.19;100.00
78373;BME280;67656;52.074;4.758;2024-01-15T06:20:15;100345.75;;;0.29;100.00
78373;BME280;67656;52.074;4.758;2024-01-15T06:25:16;100338.81;;;0.32;100.00
78373;BME280;67656;52.074;4.758;2024-01-15T06:30:16;100344.91;;;0.37;100.00
78373;BME280;67656;52.074;4.758;2024-01-15T06:35:17;100348.41;;;0.39;100.00
78373;BME280;67656;52.074;4.758;2024-01-15T06:40:17;100332.81;;;0.39;100.00
78373;BME280;67656;52.074;4.758;2024-01-15T06:45:17;100316.47;;;0.55;100.00
78373;BME280;67656;52.074;4.758;2024-01-15T06:50:18;100317.31;;;0.54;100.00
78373;BME280;67656;52.074;4.758;2024-01-15T06:55:18;100329.38;;;0.44;100.00
78373;BME280;67656;52.074;4.758;2024-01-15T07:00:18;100347.63;;;0.58;100.00
78373;BME280;67656;52.074;4.758;2024-01-15T07:05:20;100372.53;;;0.25;100.00
78373;BME280;67656;52.074;4.758;2024-01-15T07:10:21;100363.75;;;0.05;100.00
78373;BME280;67656;52.074;4.758;2024-01-15T07:15:21;100363.59;;;-0.14;100.00
78373;BME280;67656;52.074;4.758;2024-01-15T07:20:22;100335.88;;;-0.21;100.00
78373;BME280;67656;52.074;4.758;2024-01-15T07:25:22;100332.38;;;-0.25;100.00
78373;BME280;67656;52.074;4.758;2024-01-15T07:30:23;100322.84;;;-0.27;100.00
78373;BME280;67656;52.074;4.758;2024-01-15T07:35:24;100308.16;;;-0.32;100.00
78373;BME280;67656;52.074;4.758;2024-01-15T07:40:26;100328.97;;;-0.22;100.00
78373;BME280;67656;52.074;4.758;2024-01-15T07:45:26;100342.78;;;-0.23;100.00
78373;BME280;67656;52.074;4.758;2024-01-15T07:50:27;100347.06;;;-0.27;100.00
78373;BME280;67656;52.074;4.758;2024-01-15T07:55:27;100350.47;;;-0.34;100.00
78373;BME280;67656;52.074;4.758;2024-01-15T08:00:35;100347.81;;;-0.39;100.00
78373;BME280;67656;52.074;4.758;2024-01-15T08:05:36;100342.66;;;-0.39;100.00
78373;BME280;67656;52.074;4.758;2024-01-15T08:10:37;100341.75;;;-0.42;100.00
78373;BME280;67656;52.074;4.758;2024-01-15T08:15:37;100344.38;;;-0.38;100.00
78373;BME280;67656;52.074;4.758;2024-01-15T08:20:38;100357.44;;;-0.25;100.00
78373;BME280;67656;52.074;4.758;2024-01-15T08:25:38;100364.34;;;-0.29;100.00
78373;BME280;67656;52.074;4.758;2024-01-15T08:30:39;100362.63;;;-0.24;100.00
78373;BME280;67656;52.074;4.758;2024-01-15T08:35:39;100342.81;;;-0.20;100.00
78373;BME280;67656;52.074;4.758;2024-01-15T08:40:39;100338.44;;;-0.23;100.00
78373;BME280;67656;52.074;4.758;2024-01-15T08:45:40;100337.63;;;-0.17;100.00
78373;BME280;67656;52.074;4.758;2024-01-15T08:50:40;100341.22;;;-0.01;100.00
78373;BME280;67656;52.074;4.758;2024-01-15T08:55:41;100370.91;;;0.40;100.00
78373;BME280;67656;52.074;4.758;2024-01-15T09:00:41;100374.28;;;0.33;100.00
78373;BME280;67656;52.074;4.758;2024-01-15T09:05:42;100388.13;;;0.30;100.00
78373;BME280;67656;52.074;4.758;2024-01-15T09:10:47;100379.41;;;0.20;100.00
78373;BME280;67656;52.074;4.758;2024-01-15T09:15:48;100365.50;;;0.09;100.00
78373;BME280;67656;52.074;4.758;2024-01-15T09:20:48;100384.50;;;0.08;100.00
78373;BME280;67656;52.074;4.758;2024-01-15T09:25:49;100361.97;;;0.01;100.00
78373;BME280;67656;52.074;4.758;2024-01-15T09:30:49;100356.03;;;0.12;100.00
78373;BME280;67656;52.074;4.758;2024-01-15T09:35:50;100367.34;;;0.25;100.00
78373;BME280;67656;52.074;4.758;2024-01-15T09:40:50;100363.91;;;0.29;100.00
78373;BME280;67656;52.074;4.758;2024-01-15T09:45:51;100357.78;;;0.18;100.00
78373;BME280;67656;52.074;4.758;2024-01-15T09:50:52;100357.00;;;0.35;100.00
78373;BME280;67656;52.074;4.758;2024-01-15T09:55:53;100351.09;;;0.59;100.00
78373;BME280;67656;52.074;4.758;2024-01-15T10:00:54;100348.53;;;0.70;100.00
78373;BME280;67656;52.074;4.758;2024-01-15T10:06:00;100359.03;;;0.91;100.00
78373;BME280;67656;52.074;4.758;2024-01-15T10:11:09;100353.88;;;1.09;100.00
78373;BME280;67656;52.074;4.758;2024-01-15T10:16:13;100350.34;;;0.89;100.00
78373;BME280;67656;52.074;4.758;2024-01-15T10:21:14;100346.97;;;1.06;100.00
78373;BME280;67656;52.074;4.758;2024-01-15T10:26:14;100341.81;;;1.37;100.00
78373;BME280;67656;52.074;4.758;2024-01-15T10:31:17;100341.84;;;1.49;100.00
78373;BME280;67656;52.074;4.758;2024-01-15T10:36:21;100382.56;;;1.36;100.00
78373;BME280;67656;52.074;4.758;2024-01-15T10:41:22;100352.06;;;0.78;100.00
78373;BME280;67656;52.074;4.758;2024-01-15T10:46:22;100367.59;;;0.72;100.00
78373;BME280;67656;52.074;4.758;2024-01-15T10:51:23;100390.16;;;0.82;100.00
78373;BME280;67656;52.074;4.758;2024-01-15T10:56:25;100402.13;;;0.54;100.00
78373;BME280;67656;52.074;4.758;2024-01-15T11:01:28;100391.75;;;0.54;100.00
78373;BME280;67656;52.074;4.758;2024-01-15T11:06:44;100396.09;;;0.59;100.00
78373;BME280;67656;52.074;4.758;2024-01-15T11:11:47;100390.13;;;0.71;100.00
78373;BME280;67656;52.074;4.758;2024-01-15T11:17:03;100379.81;;;0.88;100.00
78373;BME280;67656;52.074;4.758;2024-01-15T11:22:04;100391.28;;;1.82;100.00
78373;BME280;67656;52.074;4.758;2024-01-15T11:27:05;100406.88;;;1.83;100.00
78373;BME280;67656;52.074;4.758;2024-01-15T11:32:09;100398.03;;;0.99;100.00
78373;BME280;67656;52.074;4.758;2024-01-15T11:37:10;100397.06;;;0.75;100.00
78373;BME280;67656;52.074;4.758;2024-01-15T11:42:11;100420.47;;;0.83;100.00
78373;BME280;67656;52.074;4.758;2024-01-15T11:47:12;100436.03;;;0.75;100.00
78373;BME280;67656;52.074;4.758;2024-01-15T11:52:16;100430.06;;;0.94;100.00
78373;BME280;67656;52.074;4.758;2024-01-15T11:57:18;100417.97;;;1.08;100.00
78373;BME280;67656;52.074;4.758;2024-01-15T12:02:22;100425.84;;;1.22;100.00
78373;BME280;67656;52.074;4.758;2024-01-15T12:07:22;100427.59;;;1.29;100.00
78373;BME280;67656;52.074;4.758;2024-01-15T12:12:39;100442.28;;;1.22;100.00
78373;BME280;67656;52.074;4.758;2024-01-15T12:17:47;100437.06;;;1.15;100.00
78373;BME280;67656;52.074;4.758;2024-01-15T12:22:48;100438.84;;;1.27;100.00
78373;BME280;67656;52.074;4.758;2024-01-15T12:27:48;100419.84;;;1.40;100.00
78373;BME280;67656;52.074;4.758;2024-01-15T12:32:50;100415.44;;;1.19;100.00
78373;BME280;67656;52.074;4.758;2024-01-15T12:37:54;100413.66;;;1.05;100.00
78373;BME280;67656;52.074;4.758;2024-01-15T12:42:55;100437.06;;;1.10;100.00
78373;BME280;67656;52.074;4.758;2024-01-15T12:48:05;100425.75;;;1.02;100.00
78373;BME280;67656;52.074;4.758;2024-01-15T12:53:27;100433.66;;;1.33;100.00
78373;BME280;67656;52.074;4.758;2024-01-15T12:58:29;100417.28;;;1.56;100.00
78373;BME280;67656;52.074;4.758;2024-01-15T13:03:29;100424.25;;;1.89;100.00
78373;BME280;67656;52.074;4.758;2024-01-15T13:08:30;100421.66;;;2.31;100.00
78373;BME280;67656;52.074;4.758;2024-01-15T13:13:30;100417.22;;;2.81;100.00
78373;BME280;67656;52.074;4.758;2024-01-15T13:18:30;100444.25;;;2.20;100.00
78373;BME280;67656;52.074;4.758;2024-01-15T13:23:31;100432.88;;;1.59;100.00
78373;BME280;67656;52.074;4.758;2024-01-15T13:28:31;100418.09;;;1.45;100.00
78373;BME280;67656;52.074;4.758;2024-01-15T13:33:33;100412.88;;;1.33;100.00
78373;BME280;67656;52.074;4.758;2024-01-15T13:38:34;100408.50;;;1.16;100.00
78373;BME280;67656;52.074;4.758;2024-01-15T13:43:35;100413.66;;;1.04;100.00
78373;BME280;67656;52.074;4.758;2024-01-15T13:48:35;100429.22;;;1.02;100.00
78373;BME280;67656;52.074;4.758;2024-01-15T13:53:37;100421.41;;;0.98;100.00
78373;BME280;67656;52.074;4.758;2024-01-15T13:58:37;100417.97;;;1.08;100.00
78373;BME280;67656;52.074;4.758;2024-01-15T14:03:38;100450.00;;;0.99;100.00
78373;BME280;67656;52.074;4.758;2024-01-15T14:08:38;100461.22;;;0.90;100.00
78373;BME280;67656;52.074;4.758;2024-01-15T14:13:39;100471.72;;;1.12;100.00
78373;BME280;67656;52.074;4.758;2024-01-15T14:18:39;100471.78;;;1.28;100.00
78373;BME280;67656;52.074;4.758;2024-01-15T14:23:39;100460.69;;;1.78;100.00
78373;BME280;67656;52.074;4.758;2024-01-15T14:28:40;100447.69;;;1.97;100.00
78373;BME280;67656;52.074;4.758;2024-01-15T14:33:40;100447.69;;;2.00;100.00
78373;BME280;67656;52.074;4.758;2024-01-15T14:38:41;100451.16;;;2.08;100.00
78373;BME280;67656;52.074;4.758;2024-01-15T14:43:41;100462.44;;;2.10;100.00
78373;BME280;67656;52.074;4.758;2024-01-15T14:48:41;100469.38;;;2.07;100.00
78373;BME280;67656;52.074;4.758;2024-01-15T14:53:42;100506.69;;;2.10;100.00
78373;BME280;67656;52.074;4.758;2024-01-15T14:58:42;100508.16;;;1.21;100.00
78373;BME280;67656;52.074;4.758;2024-01-15T15:03:43;100501.16;;;1.06;100.00
78373;BME280;67656;52.074;4.758;2024-01-15T15:08:43;100504.66;;;1.13;100.00
78373;BME280;67656;52.074;4.758;2024-01-15T15:13:43;100513.38;;;1.28;100.00
78373;BME280;67656;52.074;4.758;2024-01-15T15:18:44;100515.16;;;1.35;100.00
78373;BME280;67656;52.074;4.758;2024-01-15T15:23:44;100513.38;;;1.29;100.00
78373;BME280;67656;52.074;4.758;2024-01-15T15:28:45;100521.16;;;1.26;100.00
78373;BME280;67656;52.074;4.758;2024-01-15T15:33:45;100523.78;;;1.28;100.00
78373;BME280;67656;52.074;4.758;2024-01-15T15:38:46;100539.38;;;1.25;100.00
78373;BME280;67656;52.074;4.758;2024-01-15T15:43:46;100560.31;;;1.52;100.00
78373;BME280;67656;52.074;4.758;2024-01-15T15:48:47;100563.63;;;1.28;100.00
78373;BME280;67656;52.074;4.758;2024-01-15T15:53:47;100561.03;;;1.23;100.00
78373;BME280;67656;52.074;4.758;2024-01-15T15:58:48;100570.50;;;1.15;100.00
78373;BME280;67656;52.074;4.758;2024-01-15T16:03:48;100569.56;;;0.99;100.00
78373;BME280;67656;52.074;4.758;2024-01-15T16:08:48;100578.97;;;0.86;100.00
78373;BME280;67656;52.074;4.758;2024-01-15T16:13:49;100593.66;;;0.83;100.00
78373;BME280;67656;52.074;4.758;2024-01-15T16:18:50;100597.13;;;0.83;100.00
78373;BME280;67656;52.074;4.758;2024-01-15T16:23:52;100605.78;;;0.82;100.00
78373;BME280;67656;52.074;4.758;2024-01-15T16:28:52;100626.56;;;0.82;100.00
78373;BME280;67656;52.074;4.758;2024-01-15T16:33:53;100633.59;;;0.93;100.00
78373;BME280;67656;52.074;4.758;2024-01-15T16:38:53;100638.69;;;0.83;100.00
78373;BME280;67656;52.074;4.758;2024-01-15T16:43:54;100662.19;;;0.96;100.00
78373;BME280;67656;52.074;4.758;2024-01-15T16:48:54;100654.59;;;1.22;100.00
78373;BME280;67656;52.074;4.758;2024-01-15T16:53:55;100669.25;;;1.12;100.00
78373;BME280;67656;52.074;4.758;2024-01-15T16:58:55;100678.78;;;1.13;100.00
78373;BME280;67656;52.074;4.758;2024-01-15T17:03:56;100714.25;;;1.08;100.00
78373;BME280;67656;52.074;4.758;2024-01-15T17:08:56;100718.25;;;0.69;100.00
78373;BME280;67656;52.074;4.758;2024-01-15T17:13:57;100726.53;;;0.38;100.00
78373;BME280;67656;52.074;4.758;2024-01-15T17:18:57;100728.19;;;0.32;100.00
78373;BME280;67656;52.074;4.758;2024-01-15T17:23:57;100722.94;;;0.24;100.00
78373;BME280;67656;52.074;4.758;2024-01-15T17:28:58;100712.41;;;0.13;100.00
78373;BME280;67656;52.074;4.758;2024-01-15T17:33:58;100720.97;;;0.07;100.00
78373;BME280;67656;52.074;4.758;2024-01-15T17:39:00;100714.66;;;-0.12;100.00
78373;BME280;67656;52.074;4.758;2024-01-15T17:44:01;100730.13;;;-0.21;100.00
78373;BME280;67656;52.074;4.758;2024-01-15T17:49:01;100741.22;;;-0.30;100.00
78373;BME280;67656;52.074;4.758;2024-01-15T17:54:02;100749.72;;;-0.39;100.00
78373;BME280;67656;52.074;4.758;2024-01-15T17:59:02;100763.59;;;-0.35;100.00
78373;BME280;67656;52.074;4.758;2024-01-15T18:04:03;100784.47;;;-0.27;100.00
78373;BME280;67656;52.074;4.758;2024-01-15T18:09:03;100814.22;;;-0.04;100.00
78373;BME280;67656;52.074;4.758;2024-01-15T18:14:04;100821.41;;;0.14;100.00
78373;BME280;67656;52.074;4.758;2024-01-15T18:19:04;100812.81;;;0.19;100.00
78373;BME280;67656;52.074;4.758;2024-01-15T18:24:04;100786.75;;;0.09;100.00
78373;BME280;67656;52.074;4.758;2024-01-15T18:29:05;100804.56;;;-0.14;100.00
78373;BME280;67656;52.074;4.758;2024-01-15T18:34:06;100805.16;;;-0.31;100.00
78373;BME280;67656;52.074;4.758;2024-01-15T18:39:06;100805.94;;;-0.38;100.00
78373;BME280;67656;52.074;4.758;2024-01-15T18:44:06;100812.59;;;-0.52;100.00
78373;BME280;67656;52.074;4.758;2024-01-15T18:49:07;100813.31;;;-0.61;100.00
78373;BME280;67656;52.074;4.758;2024-01-15T18:54:07;100817.63;;;-0.62;100.00
78373;BME280;67656;52.074;4.758;2024-01-15T18:59:08;100838.53;;;-0.52;100.00
78373;BME280;67656;52.074;4.758;2024-01-15T19:04:08;100837.78;;;-0.45;100.00
78373;BME280;67656;52.074;4.758;2024-01-15T19:09:09;100838.59;;;-0.48;100.00
78373;BME280;67656;52.074;4.758;2024-01-15T19:14:12;100869.97;;;-0.34;100.00
78373;BME280;67656;52.074;4.758;2024-01-15T19:19:12;100869.22;;;-0.25;100.00
78373;BME280;67656;52.074;4.758;2024-01-15T19:24:13;100873.63;;;-0.22;100.00
78373;BME280;67656;52.074;4.758;2024-01-15T19:29:13;100860.69;;;-0.19;100.00
78373;BME280;67656;52.074;4.758;2024-01-15T19:34:14;100858.06;;;-0.22;100.00
78373;BME280;67656;52.074;4.758;2024-01-15T19:39:14;100852.75;;;-0.28;100.00
78373;BME280;67656;52.074;4.758;2024-01-15T19:44:14;100868.94;;;-0.42;100.00
78373;BME280;67656;52.074;4.758;2024-01-15T19:49:15;100876.63;;;-0.48;100.00
78373;BME280;67656;52.074;4.758;2024-01-15T19:54:15;100868.09;;;-0.41;100.00
78373;BME280;67656;52.074;4.758;2024-01-15T19:59:16;100871.66;;;-0.36;100.00
78373;BME280;67656;52.074;4.758;2024-01-15T20:04:16;100878.53;;;-0.38;100.00
78373;BME280;67656;52.074;4.758;2024-01-15T20:09:17;100877.75;;;-0.34;100.00
78373;BME280;67656;52.074;4.758;2024-01-15T20:14:17;100879.38;;;-0.40;100.00
78373;BME280;67656;52.074;4.758;2024-01-15T20:19:17;100915.19;;;-0.19;100.00
78373;BME280;67656;52.074;4.758;2024-01-15T20:24:18;100937.97;;;-0.01;100.00
78373;BME280;67656;52.074;4.758;2024-01-15T20:29:19;100951.53;;;-0.16;100.00
78373;BME280;67656;52.074;4.758;2024-01-15T20:34:19;100952.16;;;-0.29;100.00
78373;BME280;67656;52.074;4.758;2024-01-15T20:39:21;100935.53;;;-0.41;100.00
78373;BME280;67656;52.074;4.758;2024-01-15T20:44:21;100930.22;;;-0.47;100.00
78373;BME280;67656;52.074;4.758;2024-01-15T20:49:22;100933.72;;;-0.45;100.00
78373;BME280;67656;52.074;4.758;2024-01-15T20:54:22;100934.38;;;-0.55;100.00
78373;BME280;67656;52.074;4.758;2024-01-15T20:59:23;100939.53;;;-0.57;100.00
78373;BME280;67656;52.074;4.758;2024-01-15T21:04:23;100937.56;;;-0.69;100.00
78373;BME280;67656;52.074;4.758;2024-01-15T21:09:23;100938.25;;;-0.79;100.00
78373;BME280;67656;52.074;4.758;2024-01-15T21:14:24;100959.94;;;-0.74;100.00
78373;BME280;67656;52.074;4.758;2024-01-15T21:19:24;100955.59;;;-0.75;100.00
78373;BME280;67656;52.074;4.758;2024-01-15T21:24:25;100966.34;;;-0.56;100.00
78373;BME280;67656;52.074;4.758;2024-01-15T21:29:25;100970.03;;;-0.45;100.00
78373;BME280;67656;52.074;4.758;2024-01-15T21:34:26;100962.25;;;-0.45;100.00
78373;BME280;67656;52.074;4.758;2024-01-15T21:39:26;100962.97;;;-0.52;100.00
78373;BME280;67656;52.074;4.758;2024-01-15T21:44:26;100965.53;;;-0.54;100.00
78373;BME280;67656;52.074;4.758;2024-01-15T21:49:27;100956.69;;;-0.65;100.00
78373;BME280;67656;52.074;4.758;2024-01-15T21:54:27;100963.56;;;-0.66;100.00
78373;BME280;67656;52.074;4.758;2024-01-15T21:59:27;100987.78;;;-0.65;100.00
78373;BME280;67656;52.074;4.758;2024-01-15T22:04:28;100981.88;;;-0.56;100.00
78373;BME280;67656;52.074;4.758;2024-01-15T22:09:28;100984.72;;;-0.44;100.00
78373;BME280;67656;52.074;4.758;2024-01-15T22:14:28;100984.78;;;-0.41;100.00
78373;BME280;67656;52.074;4.758;2024-01-15T22:19:29;100980.44;;;-0.42;100.00
78373;BME280;67656;52.074;4.758;2024-01-15T22:24:29;100981.94;;;-0.53;100.00
78373;BME280;67656;52.074;4.758;2024-01-15T22:29:29;100978.28;;;-0.65;100.00
78373;BME280;67656;52.074;4.758;2024-01-15T22:34:30;100981.72;;;-0.66;100.00
78373;BME280;67656;52.074;4.758;2024-01-15T22:39:30;101001.59;;;-0.65;100.00
78373;BME280;67656;52.074;4.758;2024-01-15T22:44:30;101004.34;;;-0.57;100.00
78373;BME280;67656;52.074;4.758;2024-01-15T22:49:31;101012.19;;;-0.54;100.00
78373;BME280;67656;52.074;4.758;2024-01-15T22:54:31;101019.81;;;-0.62;100.00
78373;BME280;67656;52.074;4.758;2024-01-15T22:59:32;101014.38;;;-0.74;100.00
78373;BME280;67656;52.074;4.758;2024-01-15T23:04:32;101017.66;;;-0.81;100.00
78373;BME280;67656;52.074;4.758;2024-01-15T23:09:32;101020.22;;;-0.83;100.00
78373;BME280;67656;52.074;4.758;2024-01-15T23:14:36;101015.94;;;-0.82;100.00
78373;BME280;67656;52.074;4.758;2024-01-15T23:19:37;101014.03;;;-0.89;100.00
78373;BME280;67656;52.074;4.758;2024-01-15T23:24:37;101018.47;;;-0.84;100.00
78373;BME280;67656;52.074;4.758;2024-01-15T23:29:37;101026.34;;;-0.81;100.00
78373;BME280;67656;52.074;4.758;2024-01-15T23:34:38;101034.94;;;-0.82;100.00
78373;BME280;67656;52.074;4.758;2024-01-15T23:39:38;101040.94;;;-0.84;100.00
78373;BME280;67656;52.074;4.758;2024-01-15T23:44:38;101037.50;;;-0.83;100.00
78373;BME280;67656;52.074;4.758;2024-01-15T23:49:39;101043.34;;;-0.92;100.00
78373;BME280;67656;52.074;4.758;2024-01-15T23:54:39;101037.16;;;-0.99;100.00
78373;BME280;67656;52.074;4.758;2024-01-15T23:59:40;101044.78;;;-1.05;100.00
